sensor_id;sensor_type;location;lat;lon;timestamp;temperature;humidity
51476;DHT22;37554;50.362;7.568;2023-09-12T00:01:29;28.00;55.40
51476;DHT22;37554;50.362;7.568;2023-09-12T00:03:58;28.00;55.40
51476;DHT22;37554;50.362;7.568;2023-09-12T00:06:24;28.00;55.50
51476;DHT22;37554;50.362;7.568;2023-09-12T00:08:50;27.90;55.50
51476;DHT22;37554;50.362;7.568;2023-09-12T00:11:16;27.90;55.70
51476;DHT22;37554;50.362;7.568;2023-09-12T00:13:42;27.90;55.70
51476;DHT22;37554;50.362;7.568;2023-09-12T00:16:08;27.90;55.80
51476;DHT22;37554;50.362;7.568;2023-09-12T00:18:39;27.90;55.80
51476;DHT22;37554;50.362;7.568;2023-09-12T00:21:05;27.90;55.70
51476;DHT22;37554;50.362;7.568;2023-09-12T00:23:31;27.90;55.70
51476;DHT22;37554;50.362;7.568;2023-09-12T00:25:57;27.90;55.80
51476;DHT22;37554;50.362;7.568;2023-09-12T00:28:23;27.90;55.80
51476;DHT22;37554;50.362;7.568;2023-09-12T00:30:49;27.80;55.80
51476;DHT22;37554;50.362;7.568;2023-09-12T00:33:15;27.80;55.90
51476;DHT22;37554;50.362;7.568;2023-09-12T00:35:40;27.80;55.90
51476;DHT22;37554;50.362;7.568;2023-09-12T00:38:07;27.80;56.10
51476;DHT22;37554;50.362;7.568;2023-09-12T00:40:33;27.80;56.10
51476;DHT22;37554;50.362;7.568;2023-09-12T00:42:59;27.70;56.20
51476;DHT22;37554;50.362;7.568;2023-09-12T00:45:25;27.80;56.30
51476;DHT22;37554;50.362;7.568;2023-09-12T00:47:51;27.70;56.40
51476;DHT22;37554;50.362;7.568;2023-09-12T00:50:20;27.70;56.40
51476;DHT22;37554;50.362;7.568;2023-09-12T00:52:47;27.70;56.40
51476;DHT22;37554;50.362;7.568;2023-09-12T00:55:14;27.70;56.30
51476;DHT22;37554;50.362;7.568;2023-09-12T00:57:41;27.70;56.40
51476;DHT22;37554;50.362;7.568;2023-09-12T01:00:07;27.80;56.50
51476;DHT22;37554;50.362;7.568;2023-09-12T01:02:39;27.70;56.40
51476;DHT22;37554;50.362;7.568;2023-09-12T01:05:06;27.70;56.40
51476;DHT22;37554;50.362;7.568;2023-09-12T01:07:33;27.70;56.50
51476;DHT22;37554;50.362;7.568;2023-09-12T01:09:58;27.60;56.50
51476;DHT22;37554;50.362;7.568;2023-09-12T01:12:24;27.70;56.70
51476;DHT22;37554;50.362;7.568;2023-09-12T01:14:50;27.60;56.70
51476;DHT22;37554;50.362;7.568;2023-09-12T01:17:15;27.60;56.90
51476;DHT22;37554;50.362;7.568;2023-09-12T01:19:41;27.60;57.00
51476;DHT22;37554;50.362;7.568;2023-09-12T01:27:48;27.50;57.20
51476;DHT22;37554;50.362;7.568;2023-09-12T01:30:21;27.50;57.30
51476;DHT22;37554;50.362;7.568;2023-09-12T01:32:48;27.40;57.40
51476;DHT22;37554;50.362;7.568;2023-09-12T01:35:14;27.40;57.40
51476;DHT22;37554;50.362;7.568;2023-09-12T01:37:40;27.40;57.40
51476;DHT22;37554;50.362;7.568;2023-09-12T01:40:06;27.40;57.50
51476;DHT22;37554;50.362;7.568;2023-09-12T01:42:42;27.40;57.50
51476;DHT22;37554;50.362;7.568;2023-09-12T01:45:10;27.40;57.70
51476;DHT22;37554;50.362;7.568;2023-09-12T01:47:38;27.40;57.70
51476;DHT22;37554;50.362;7.568;2023-09-12T01:50:05;27.40;57.80
51476;DHT22;37554;50.362;7.568;2023-09-12T01:52:32;27.30;57.80
51476;DHT22;37554;50.362;7.568;2023-09-12T01:54:58;27.30;57.90
51476;DHT22;37554;50.362;7.568;2023-09-12T01:57:25;27.30;58.00
51476;DHT22;37554;50.362;7.568;2023-09-12T01:59:51;27.30;58.00
51476;DHT22;37554;50.362;7.568;2023-09-12T02:02:17;27.30;58.00
51476;DHT22;37554;50.362;7.568;2023-09-12T02:05:13;27.30;58.10
51476;DHT22;37554;50.362;7.568;2023-09-12T02:07:39;27.30;58.40
51476;DHT22;37554;50.362;7.568;2023-09-12T02:10:06;27.20;58.30
51476;DHT22;37554;50.362;7.568;2023-09-12T02:12:32;27.20;58.40
51476;DHT22;37554;50.362;7.568;2023-09-12T02:14:57;27.20;58.60
51476;DHT22;37554;50.362;7.568;2023-09-12T02:17:23;27.20;58.60
51476;DHT22;37554;50.362;7.568;2023-09-12T02:19:49;27.20;58.70
51476;DHT22;37554;50.362;7.568;2023-09-12T02:22:14;27.10;58.70
51476;DHT22;37554;50.362;7.568;2023-09-12T02:24:40;27.10;58.80
51476;DHT22;37554;50.362;7.568;2023-09-12T02:27:06;27.10;58.80
51476;DHT22;37554;50.362;7.568;2023-09-12T02:29:31;27.20;58.90
51476;DHT22;37554;50.362;7.568;2023-09-12T02:32:00;27.20;58.90
51476;DHT22;37554;50.362;7.568;2023-09-12T02:34:25;27.20;58.90
51476;DHT22;37554;50.362;7.568;2023-09-12T02:36:51;27.10;59.00
51476;DHT22;37554;50.362;7.568;2023-09-12T02:39:17;27.10;59.00
51476;DHT22;37554;50.362;7.568;2023-09-12T02:41:42;27.10;59.10
51476;DHT22;37554;50.362;7.568;2023-09-12T02:44:08;27.10;59.20
51476;DHT22;37554;50.362;7.568;2023-09-12T02:46:34;27.10;59.20
51476;DHT22;37554;50.362;7.568;2023-09-12T02:49:00;27.10;59.30
51476;DHT22;37554;50.362;7.568;2023-09-12T02:51:26;27.10;59.30
51476;DHT22;37554;50.362;7.568;2023-09-12T02:53:51;27.10;59.40
51476;DHT22;37554;50.362;7.568;2023-09-12T02:56:17;27.10;59.50
51476;DHT22;37554;50.362;7.568;2023-09-12T02:58:46;27.10;59.50
51476;DHT22;37554;50.362;7.568;2023-09-12T03:01:18;27.00;59.60
51476;DHT22;37554;50.362;7.568;2023-09-12T03:03:51;27.00;59.80
51476;DHT22;37554;50.362;7.568;2023-09-12T03:06:16;27.00;59.80
51476;DHT22;37554;50.362;7.568;2023-09-12T03:08:44;26.90;59.80
51476;DHT22;37554;50.362;7.568;2023-09-12T03:11:10;26.90;59.80
51476;DHT22;37554;50.362;7.568;2023-09-12T03:13:37;26.90;59.90
51476;DHT22;37554;50.362;7.568;2023-09-12T03:16:03;26.90;60.00
51476;DHT22;37554;50.362;7.568;2023-09-12T03:18:29;26.90;60.00
51476;DHT22;37554;50.362;7.568;2023-09-12T03:20:54;26.90;60.00
51476;DHT22;37554;50.362;7.568;2023-09-12T03:23:20;26.90;60.00
51476;DHT22;37554;50.362;7.568;2023-09-12T03:25:46;26.80;60.00
51476;DHT22;37554;50.362;7.568;2023-09-12T03:28:11;26.90;60.00
51476;DHT22;37554;50.362;7.568;2023-09-12T03:30:38;26.80;60.10
51476;DHT22;37554;50.362;7.568;2023-09-12T03:33:04;26.80;60.10
51476;DHT22;37554;50.362;7.568;2023-09-12T03:35:31;26.80;60.00
51476;DHT22;37554;50.362;7.568;2023-09-12T03:37:57;26.80;60.00
51476;DHT22;37554;50.362;7.568;2023-09-12T03:40:23;26.80;60.00
51476;DHT22;37554;50.362;7.568;2023-09-12T03:42:48;26.80;60.10
51476;DHT22;37554;50.362;7.568;2023-09-12T03:45:14;26.80;60.20
51476;DHT22;37554;50.362;7.568;2023-09-12T03:47:39;26.70;60.20
51476;DHT22;37554;50.362;7.568;2023-09-12T03:50:06;26.80;60.40
51476;DHT22;37554;50.362;7.568;2023-09-12T03:52:31;26.70;60.30
51476;DHT22;37554;50.362;7.568;2023-09-12T03:54:57;26.80;60.40
51476;DHT22;37554;50.362;7.568;2023-09-12T03:57:22;26.70;60.40
51476;DHT22;37554;50.362;7.568;2023-09-12T03:59:48;26.70;60.40
51476;DHT22;37554;50.362;7.568;2023-09-12T04:02:14;26.70;60.40
51476;DHT22;37554;50.362;7.568;2023-09-12T04:04:39;26.70;60.50
51476;DHT22;37554;50.362;7.568;2023-09-12T04:07:05;26.60;60.50
51476;DHT22;37554;50.362;7.568;2023-09-12T04:09:32;26.60;60.50
51476;DHT22;37554;50.362;7.568;2023-09-12T04:11:57;26.60;60.60
51476;DHT22;37554;50.362;7.568;2023-09-12T04:14:23;26.50;60.60
51476;DHT22;37554;50.362;7.568;2023-09-12T04:16:48;26.50;60.80
51476;DHT22;37554;50.362;7.568;2023-09-12T04:19:14;26.50;60.90
51476;DHT22;37554;50.362;7.568;2023-09-12T04:21:40;26.50;60.90
51476;DHT22;37554;50.362;7.568;2023-09-12T04:24:06;26.40;60.90
51476;DHT22;37554;50.362;7.568;2023-09-12T04:26:32;26.40;61.00
51476;DHT22;37554;50.362;7.568;2023-09-12T04:28:58;26.40;61.00
51476;DHT22;37554;50.362;7.568;2023-09-12T04:31:23;26.40;61.00
51476;DHT22;37554;50.362;7.568;2023-09-12T04:33:52;26.40;61.00
51476;DHT22;37554;50.362;7.568;2023-09-12T04:36:19;26.30;60.90
51476;DHT22;37554;50.362;7.568;2023-09-12T04:38:45;26.30;60.90
51476;DHT22;37554;50.362;7.568;2023-09-12T04:41:12;26.30;60.90
51476;DHT22;37554;50.362;7.568;2023-09-12T04:43:41;26.30;60.90
51476;DHT22;37554;50.362;7.568;2023-09-12T04:46:07;26.30;60.80
51476;DHT22;37554;50.362;7.568;2023-09-12T04:48:32;26.30;60.80
51476;DHT22;37554;50.362;7.568;2023-09-12T04:50:58;26.30;60.70
51476;DHT22;37554;50.362;7.568;2023-09-12T04:53:24;26.20;60.70
51476;DHT22;37554;50.362;7.568;2023-09-12T04:55:52;26.20;60.60
51476;DHT22;37554;50.362;7.568;2023-09-12T04:58:18;26.20;60.50
51476;DHT22;37554;50.362;7.568;2023-09-12T05:00:45;26.20;60.30
51476;DHT22;37554;50.362;7.568;2023-09-12T05:03:11;26.20;60.30
51476;DHT22;37554;50.362;7.568;2023-09-12T05:05:36;26.20;60.20
51476;DHT22;37554;50.362;7.568;2023-09-12T05:08:02;26.10;60.10
51476;DHT22;37554;50.362;7.568;2023-09-12T05:10:29;26.10;60.40
51476;DHT22;37554;50.362;7.568;2023-09-12T05:12:55;26.00;60.30
51476;DHT22;37554;50.362;7.568;2023-09-12T05:15:20;26.10;60.40
51476;DHT22;37554;50.362;7.568;2023-09-12T05:17:46;26.00;60.20
51476;DHT22;37554;50.362;7.568;2023-09-12T05:20:12;26.10;60.10
51476;DHT22;37554;50.362;7.568;2023-09-12T05:22:37;26.10;60.10
51476;DHT22;37554;50.362;7.568;2023-09-12T05:25:03;26.10;60.10
51476;DHT22;37554;50.362;7.568;2023-09-12T05:27:29;26.10;60.10
51476;DHT22;37554;50.362;7.568;2023-09-12T05:29:54;26.10;60.00
51476;DHT22;37554;50.362;7.568;2023-09-12T05:32:20;26.10;59.90
51476;DHT22;37554;50.362;7.568;2023-09-12T05:34:45;26.10;59.90
51476;DHT22;37554;50.362;7.568;2023-09-12T05:37:15;26.10;59.90
51476;DHT22;37554;50.362;7.568;2023-09-12T05:39:40;26.10;59.90
51476;DHT22;37554;50.362;7.568;2023-09-12T05:42:06;26.20;59.90
51476;DHT22;37554;50.362;7.568;2023-09-12T05:44:31;26.20;59.90
51476;DHT22;37554;50.362;7.568;2023-09-12T05:46:57;26.00;60.00
51476;DHT22;37554;50.362;7.568;2023-09-12T05:49:23;25.50;61.00
51476;DHT22;37554;50.362;7.568;2023-09-12T05:51:49;25.30;62.70
51476;DHT22;37554;50.362;7.568;2023-09-12T05:54:14;25.10;62.50
51476;DHT22;37554;50.362;7.568;2023-09-12T05:56:41;25.00;63.00
51476;DHT22;37554;50.362;7.568;2023-09-12T05:59:06;24.80;63.70
51476;DHT22;37554;50.362;7.568;2023-09-12T06:01:32;24.70;64.30
51476;DHT22;37554;50.362;7.568;2023-09-12T06:03:58;24.60;64.70
51476;DHT22;37554;50.362;7.568;2023-09-12T06:06:23;24.50;65.20
51476;DHT22;37554;50.362;7.568;2023-09-12T06:08:49;24.50;65.40
51476;DHT22;37554;50.362;7.568;2023-09-12T06:11:15;24.50;65.40
51476;DHT22;37554;50.362;7.568;2023-09-12T06:13:40;24.50;65.40
51476;DHT22;37554;50.362;7.568;2023-09-12T06:16:06;24.50;65.40
51476;DHT22;37554;50.362;7.568;2023-09-12T06:18:33;24.50;65.50
51476;DHT22;37554;50.362;7.568;2023-09-12T06:21:00;24.50;65.70
51476;DHT22;37554;50.362;7.568;2023-09-12T06:23:29;24.50;65.90
51476;DHT22;37554;50.362;7.568;2023-09-12T06:25:55;24.40;66.00
51476;DHT22;37554;50.362;7.568;2023-09-12T06:28:25;24.40;66.40
51476;DHT22;37554;50.362;7.568;2023-09-12T06:30:51;24.40;66.50
51476;DHT22;37554;50.362;7.568;2023-09-12T06:33:17;24.50;66.50
51476;DHT22;37554;50.362;7.568;2023-09-12T06:35:42;24.50;66.40
51476;DHT22;37554;50.362;7.568;2023-09-12T06:38:08;24.50;66.40
51476;DHT22;37554;50.362;7.568;2023-09-12T06:40:33;24.50;67.10
51476;DHT22;37554;50.362;7.568;2023-09-12T06:42:59;24.50;66.60
51476;DHT22;37554;50.362;7.568;2023-09-12T06:45:25;24.50;66.80
51476;DHT22;37554;50.362;7.568;2023-09-12T06:47:50;24.50;66.70
51476;DHT22;37554;50.362;7.568;2023-09-12T06:50:16;24.50;66.70
51476;DHT22;37554;50.362;7.568;2023-09-12T06:52:41;24.40;66.90
51476;DHT22;37554;50.362;7.568;2023-09-12T06:55:07;24.40;66.90
51476;DHT22;37554;50.362;7.568;2023-09-12T06:57:33;24.50;67.20
51476;DHT22;37554;50.362;7.568;2023-09-12T06:59:58;24.60;67.20
51476;DHT22;37554;50.362;7.568;2023-09-12T07:02:26;24.60;67.10
51476;DHT22;37554;50.362;7.568;2023-09-12T07:04:51;24.70;66.80
51476;DHT22;37554;50.362;7.568;2023-09-12T07:07:17;24.70;66.80
51476;DHT22;37554;50.362;7.568;2023-09-12T07:09:43;24.70;67.00
51476;DHT22;37554;50.362;7.568;2023-09-12T07:12:08;24.60;67.10
51476;DHT22;37554;50.362;7.568;2023-09-12T07:14:35;24.50;67.40
51476;DHT22;37554;50.362;7.568;2023-09-12T07:17:03;24.40;67.90
51476;DHT22;37554;50.362;7.568;2023-09-12T07:19:29;24.50;67.90
51476;DHT22;37554;50.362;7.568;2023-09-12T07:21:55;24.50;68.00
51476;DHT22;37554;50.362;7.568;2023-09-12T07:24:25;24.50;68.00
51476;DHT22;37554;50.362;7.568;2023-09-12T07:26:51;24.60;68.10
51476;DHT22;37554;50.362;7.568;2023-09-12T07:29:17;24.60;68.20
51476;DHT22;37554;50.362;7.568;2023-09-12T07:31:43;24.60;68.40
51476;DHT22;37554;50.362;7.568;2023-09-12T07:34:08;24.60;68.30
51476;DHT22;37554;50.362;7.568;2023-09-12T07:36:35;24.60;68.30
51476;DHT22;37554;50.362;7.568;2023-09-12T07:39:01;24.60;68.10
51476;DHT22;37554;50.362;7.568;2023-09-12T07:41:28;24.70;68.30
51476;DHT22;37554;50.362;7.568;2023-09-12T07:43:54;24.70;68.10
51476;DHT22;37554;50.362;7.568;2023-09-12T07:46:19;24.70;68.00
51476;DHT22;37554;50.362;7.568;2023-09-12T07:48:45;24.80;68.20
51476;DHT22;37554;50.362;7.568;2023-09-12T07:51:14;24.80;68.00
51476;DHT22;37554;50.362;7.568;2023-09-12T07:53:42;24.90;68.00
51476;DHT22;37554;50.362;7.568;2023-09-12T07:56:09;24.90;67.90
51476;DHT22;37554;50.362;7.568;2023-09-12T07:58:35;24.90;68.10
51476;DHT22;37554;50.362;7.568;2023-09-12T08:01:09;25.00;68.10
51476;DHT22;37554;50.362;7.568;2023-09-12T08:03:36;25.00;68.10
51476;DHT22;37554;50.362;7.568;2023-09-12T08:06:03;25.10;67.90
51476;DHT22;37554;50.362;7.568;2023-09-12T08:08:29;25.20;67.80
51476;DHT22;37554;50.362;7.568;2023-09-12T08:10:55;25.20;67.50
51476;DHT22;37554;50.362;7.568;2023-09-12T08:13:22;25.30;67.10
51476;DHT22;37554;50.362;7.568;2023-09-12T08:15:48;25.40;66.80
51476;DHT22;37554;50.362;7.568;2023-09-12T08:18:13;25.40;66.60
51476;DHT22;37554;50.362;7.568;2023-09-12T08:20:39;25.40;66.80
51476;DHT22;37554;50.362;7.568;2023-09-12T08:23:05;25.50;67.20
51476;DHT22;37554;50.362;7.568;2023-09-12T08:25:30;25.50;66.90
51476;DHT22;37554;50.362;7.568;2023-09-12T08:27:56;25.60;66.80
51476;DHT22;37554;50.362;7.568;2023-09-12T08:30:22;25.60;66.40
51476;DHT22;37554;50.362;7.568;2023-09-12T08:32:47;25.70;66.20
51476;DHT22;37554;50.362;7.568;2023-09-12T08:35:13;25.70;66.10
51476;DHT22;37554;50.362;7.568;2023-09-12T08:37:40;25.80;65.70
51476;DHT22;37554;50.362;7.568;2023-09-12T08:40:07;25.90;66.20
51476;DHT22;37554;50.362;7.568;2023-09-12T08:42:42;26.10;65.80
51476;DHT22;37554;50.362;7.568;2023-09-12T08:45:19;26.20;65.30
51476;DHT22;37554;50.362;7.568;2023-09-12T08:47:49;26.30;65.10
51476;DHT22;37554;50.362;7.568;2023-09-12T08:50:16;26.40;64.80
51476;DHT22;37554;50.362;7.568;2023-09-12T08:52:46;26.60;64.70
51476;DHT22;37554;50.362;7.568;2023-09-12T08:55:13;26.70;64.10
51476;DHT22;37554;50.362;7.568;2023-09-12T08:57:40;26.80;64.50
51476;DHT22;37554;50.362;7.568;2023-09-12T09:00:07;26.80;64.00
51476;DHT22;37554;50.362;7.568;2023-09-12T09:02:43;26.90;64.00
51476;DHT22;37554;50.362;7.568;2023-09-12T09:05:11;27.00;63.60
51476;DHT22;37554;50.362;7.568;2023-09-12T09:07:37;27.10;63.40
51476;DHT22;37554;50.362;7.568;2023-09-12T09:10:05;27.10;63.10
51476;DHT22;37554;50.362;7.568;2023-09-12T09:12:32;27.10;62.90
51476;DHT22;37554;50.362;7.568;2023-09-12T09:14:58;27.20;63.00
51476;DHT22;37554;50.362;7.568;2023-09-12T09:17:24;27.40;63.40
51476;DHT22;37554;50.362;7.568;2023-09-12T09:19:49;27.50;63.40
51476;DHT22;37554;50.362;7.568;2023-09-12T09:22:15;27.60;62.70
51476;DHT22;37554;50.362;7.568;2023-09-12T09:24:41;27.70;62.30
51476;DHT22;37554;50.362;7.568;2023-09-12T09:27:07;27.80;62.20
51476;DHT22;37554;50.362;7.568;2023-09-12T09:29:46;27.90;62.10
51476;DHT22;37554;50.362;7.568;2023-09-12T09:32:17;28.10;61.20
51476;DHT22;37554;50.362;7.568;2023-09-12T09:34:44;28.20;61.30
51476;DHT22;37554;50.362;7.568;2023-09-12T09:37:09;28.30;61.00
51476;DHT22;37554;50.362;7.568;2023-09-12T09:39:35;28.40;61.00
51476;DHT22;37554;50.362;7.568;2023-09-12T09:42:01;28.50;60.60
51476;DHT22;37554;50.362;7.568;2023-09-12T09:44:27;28.60;60.30
51476;DHT22;37554;50.362;7.568;2023-09-12T09:47:02;28.70;59.90
51476;DHT22;37554;50.362;7.568;2023-09-12T09:49:31;28.80;59.50
51476;DHT22;37554;50.362;7.568;2023-09-12T09:51:59;28.90;60.30
51476;DHT22;37554;50.362;7.568;2023-09-12T09:54:28;29.00;59.70
51476;DHT22;37554;50.362;7.568;2023-09-12T09:56:55;29.10;60.10
51476;DHT22;37554;50.362;7.568;2023-09-12T09:59:26;29.30;59.20
51476;DHT22;37554;50.362;7.568;2023-09-12T10:01:56;29.40;58.50
51476;DHT22;37554;50.362;7.568;2023-09-12T10:04:23;29.60;58.20
51476;DHT22;37554;50.362;7.568;2023-09-12T10:06:49;29.60;58.10
51476;DHT22;37554;50.362;7.568;2023-09-12T10:09:16;29.70;58.20
51476;DHT22;37554;50.362;7.568;2023-09-12T10:11:43;29.90;58.50
51476;DHT22;37554;50.362;7.568;2023-09-12T10:14:11;30.00;57.60
51476;DHT22;37554;50.362;7.568;2023-09-12T10:16:48;30.00;57.50
51476;DHT22;37554;50.362;7.568;2023-09-12T10:19:23;30.10;56.70
51476;DHT22;37554;50.362;7.568;2023-09-12T10:22:06;30.20;56.50
51476;DHT22;37554;50.362;7.568;2023-09-12T10:24:35;30.30;56.30
51476;DHT22;37554;50.362;7.568;2023-09-12T10:27:02;30.50;56.40
51476;DHT22;37554;50.362;7.568;2023-09-12T10:29:29;30.60;56.80
51476;DHT22;37554;50.362;7.568;2023-09-12T10:31:56;30.70;56.50
51476;DHT22;37554;50.362;7.568;2023-09-12T10:34:25;30.60;56.00
51476;DHT22;37554;50.362;7.568;2023-09-12T10:36:51;30.60;55.80
51476;DHT22;37554;50.362;7.568;2023-09-12T10:39:19;30.70;55.10
51476;DHT22;37554;50.362;7.568;2023-09-12T10:41:46;30.90;55.20
51476;DHT22;37554;50.362;7.568;2023-09-12T10:44:18;31.10;55.30
51476;DHT22;37554;50.362;7.568;2023-09-12T10:46:45;31.10;54.40
51476;DHT22;37554;50.362;7.568;2023-09-12T10:49:13;30.90;54.60
51476;DHT22;37554;50.362;7.568;2023-09-12T10:51:46;30.70;54.70
51476;DHT22;37554;50.362;7.568;2023-09-12T10:54:24;30.50;54.80
51476;DHT22;37554;50.362;7.568;2023-09-12T10:57:07;30.50;56.00
51476;DHT22;37554;50.362;7.568;2023-09-12T10:59:34;30.90;54.90
51476;DHT22;37554;50.362;7.568;2023-09-12T11:02:30;31.20;53.90
51476;DHT22;37554;50.362;7.568;2023-09-12T11:05:00;31.20;53.30
51476;DHT22;37554;50.362;7.568;2023-09-12T11:10:26;30.70;53.60
51476;DHT22;37554;50.362;7.568;2023-09-12T11:12:54;30.70;53.50
51476;DHT22;37554;50.362;7.568;2023-09-12T11:15:21;30.70;53.70
51476;DHT22;37554;50.362;7.568;2023-09-12T11:20:25;30.50;53.70
51476;DHT22;37554;50.362;7.568;2023-09-12T11:22:51;30.40;54.40
51476;DHT22;37554;50.362;7.568;2023-09-12T11:25:19;30.30;54.50
51476;DHT22;37554;50.362;7.568;2023-09-12T11:30:19;29.80;54.90
51476;DHT22;37554;50.362;7.568;2023-09-12T11:32:48;29.60;55.50
51476;DHT22;37554;50.362;7.568;2023-09-12T11:35:14;29.50;56.10
51476;DHT22;37554;50.362;7.568;2023-09-12T11:37:48;29.40;56.40
51476;DHT22;37554;50.362;7.568;2023-09-12T11:40:15;29.30;57.00
51476;DHT22;37554;50.362;7.568;2023-09-12T11:42:42;29.20;57.00
51476;DHT22;37554;50.362;7.568;2023-09-12T11:45:09;29.20;57.30
51476;DHT22;37554;50.362;7.568;2023-09-12T11:47:40;29.10;57.50
51476;DHT22;37554;50.362;7.568;2023-09-12T11:50:06;29.10;57.50
51476;DHT22;37554;50.362;7.568;2023-09-12T11:52:36;29.30;57.20
51476;DHT22;37554;50.362;7.568;2023-09-12T11:55:03;29.40;56.70
51476;DHT22;37554;50.362;7.568;2023-09-12T11:57:29;29.40;56.80
51476;DHT22;37554;50.362;7.568;2023-09-12T11:59:56;29.40;57.00
51476;DHT22;37554;50.362;7.568;2023-09-12T12:02:22;29.40;57.00
51476;DHT22;37554;50.362;7.568;2023-09-12T12:04:49;29.50;57.00
51476;DHT22;37554;50.362;7.568;2023-09-12T12:07:15;29.70;56.60
51476;DHT22;37554;50.362;7.568;2023-09-12T12:09:41;29.90;56.50
51476;DHT22;37554;50.362;7.568;2023-09-12T12:14:36;30.00;56.70
51476;DHT22;37554;50.362;7.568;2023-09-12T12:17:12;29.80;57.00
51476;DHT22;37554;50.362;7.568;2023-09-12T12:19:38;29.50;57.30
51476;DHT22;37554;50.362;7.568;2023-09-12T12:22:05;29.30;57.70
51476;DHT22;37554;50.362;7.568;2023-09-12T12:24:39;29.20;58.00
51476;DHT22;37554;50.362;7.568;2023-09-12T12:27:05;29.20;58.30
51476;DHT22;37554;50.362;7.568;2023-09-12T12:29:33;29.10;59.00
51476;DHT22;37554;50.362;7.568;2023-09-12T12:32:02;29.00;58.70
51476;DHT22;37554;50.362;7.568;2023-09-12T12:34:30;28.90;58.80
51476;DHT22;37554;50.362;7.568;2023-09-12T12:36:56;28.90;58.80
51476;DHT22;37554;50.362;7.568;2023-09-12T12:39:22;28.90;59.10
51476;DHT22;37554;50.362;7.568;2023-09-12T12:41:48;28.90;59.40
51476;DHT22;37554;50.362;7.568;2023-09-12T12:44:14;28.80;59.30
51476;DHT22;37554;50.362;7.568;2023-09-12T12:46:53;28.70;60.10
51476;DHT22;37554;50.362;7.568;2023-09-12T12:49:20;28.70;60.00
51476;DHT22;37554;50.362;7.568;2023-09-12T12:51:47;28.70;61.10
51476;DHT22;37554;50.362;7.568;2023-09-12T12:54:13;28.80;60.40
51476;DHT22;37554;50.362;7.568;2023-09-12T12:56:39;28.90;60.60
51476;DHT22;37554;50.362;7.568;2023-09-12T12:59:07;28.90;60.70
51476;DHT22;37554;50.362;7.568;2023-09-12T13:01:38;29.10;60.60
51476;DHT22;37554;50.362;7.568;2023-09-12T13:04:07;29.10;60.10
51476;DHT22;37554;50.362;7.568;2023-09-12T13:06:34;29.10;60.00
51476;DHT22;37554;50.362;7.568;2023-09-12T13:09:02;29.20;59.90
51476;DHT22;37554;50.362;7.568;2023-09-12T13:11:31;29.20;59.70
51476;DHT22;37554;50.362;7.568;2023-09-12T13:13:57;29.20;59.50
51476;DHT22;37554;50.362;7.568;2023-09-12T13:16:23;29.20;59.50
51476;DHT22;37554;50.362;7.568;2023-09-12T13:18:48;29.20;59.50
51476;DHT22;37554;50.362;7.568;2023-09-12T13:21:14;29.40;59.40
51476;DHT22;37554;50.362;7.568;2023-09-12T13:23:40;29.70;59.00
51476;DHT22;37554;50.362;7.568;2023-09-12T13:26:07;30.00;58.40
51476;DHT22;37554;50.362;7.568;2023-09-12T13:28:33;30.10;57.60
51476;DHT22;37554;50.362;7.568;2023-09-12T13:30:59;30.40;57.20
51476;DHT22;37554;50.362;7.568;2023-09-12T13:33:25;30.60;57.00
51476;DHT22;37554;50.362;7.568;2023-09-12T13:35:51;30.70;56.40
51476;DHT22;37554;50.362;7.568;2023-09-12T13:38:17;30.80;55.70
51476;DHT22;37554;50.362;7.568;2023-09-12T13:40:45;30.70;55.70
51476;DHT22;37554;50.362;7.568;2023-09-12T13:43:11;30.50;56.10
51476;DHT22;37554;50.362;7.568;2023-09-12T13:45:37;30.40;56.70
51476;DHT22;37554;50.362;7.568;2023-09-12T13:48:03;30.20;56.30
51476;DHT22;37554;50.362;7.568;2023-09-12T13:50:30;30.10;56.70
51476;DHT22;37554;50.362;7.568;2023-09-12T13:53:00;30.10;56.80
51476;DHT22;37554;50.362;7.568;2023-09-12T13:55:29;30.10;56.80
51476;DHT22;37554;50.362;7.568;2023-09-12T13:57:55;30.00;56.80
51476;DHT22;37554;50.362;7.568;2023-09-12T14:00:21;29.90;57.00
51476;DHT22;37554;50.362;7.568;2023-09-12T14:02:46;30.00;57.10
51476;DHT22;37554;50.362;7.568;2023-09-12T14:05:12;30.20;57.30
51476;DHT22;37554;50.362;7.568;2023-09-12T14:07:38;30.20;57.10
51476;DHT22;37554;50.362;7.568;2023-09-12T14:10:06;30.40;56.80
51476;DHT22;37554;50.362;7.568;2023-09-12T14:12:32;30.50;56.20
51476;DHT22;37554;50.362;7.568;2023-09-12T14:14:57;30.60;55.90
51476;DHT22;37554;50.362;7.568;2023-09-12T14:17:23;30.80;55.60
51476;DHT22;37554;50.362;7.568;2023-09-12T14:19:49;30.90;55.40
51476;DHT22;37554;50.362;7.568;2023-09-12T14:22:14;31.10;55.30
51476;DHT22;37554;50.362;7.568;2023-09-12T14:24:40;31.20;55.00
51476;DHT22;37554;50.362;7.568;2023-09-12T14:27:06;31.30;54.80
51476;DHT22;37554;50.362;7.568;2023-09-12T14:29:31;31.20;54.70
51476;DHT22;37554;50.362;7.568;2023-09-12T14:31:57;31.20;54.80
51476;DHT22;37554;50.362;7.568;2023-09-12T14:34:29;31.20;55.00
51476;DHT22;37554;50.362;7.568;2023-09-12T14:36:57;31.20;54.90
51476;DHT22;37554;50.362;7.568;2023-09-12T14:39:25;31.20;54.90
51476;DHT22;37554;50.362;7.568;2023-09-12T14:41:51;31.30;54.80
51476;DHT22;37554;50.362;7.568;2023-09-12T14:44:26;31.20;54.50
51476;DHT22;37554;50.362;7.568;2023-09-12T14:46:53;31.20;54.90
51476;DHT22;37554;50.362;7.568;2023-09-12T14:49:19;31.30;54.80
51476;DHT22;37554;50.362;7.568;2023-09-12T14:51:44;31.30;54.80
51476;DHT22;37554;50.362;7.568;2023-09-12T14:54:10;31.20;54.60
51476;DHT22;37554;50.362;7.568;2023-09-12T14:56:36;31.20;54.40
51476;DHT22;37554;50.362;7.568;2023-09-12T14:59:03;31.10;54.50
51476;DHT22;37554;50.362;7.568;2023-09-12T15:01:29;31.00;55.00
51476;DHT22;37554;50.362;7.568;2023-09-12T15:03:54;30.90;55.10
51476;DHT22;37554;50.362;7.568;2023-09-12T15:06:20;30.70;55.30
51476;DHT22;37554;50.362;7.568;2023-09-12T15:08:46;30.60;55.50
51476;DHT22;37554;50.362;7.568;2023-09-12T15:11:11;30.60;55.50
51476;DHT22;37554;50.362;7.568;2023-09-12T15:13:37;30.60;55.40
51476;DHT22;37554;50.362;7.568;2023-09-12T15:16:03;30.60;55.40
51476;DHT22;37554;50.362;7.568;2023-09-12T15:18:30;30.50;55.50
51476;DHT22;37554;50.362;7.568;2023-09-12T15:20:56;30.40;56.20
51476;DHT22;37554;50.362;7.568;2023-09-12T15:23:21;30.30;55.80
51476;DHT22;37554;50.362;7.568;2023-09-12T15:25:49;30.20;56.00
51476;DHT22;37554;50.362;7.568;2023-09-12T15:28:14;30.10;56.10
51476;DHT22;37554;50.362;7.568;2023-09-12T15:30:40;30.00;56.10
51476;DHT22;37554;50.362;7.568;2023-09-12T15:33:05;30.00;56.20
51476;DHT22;37554;50.362;7.568;2023-09-12T15:35:31;29.80;56.30
51476;DHT22;37554;50.362;7.568;2023-09-12T15:37:57;29.80;56.40
51476;DHT22;37554;50.362;7.568;2023-09-12T15:40:24;29.70;56.70
51476;DHT22;37554;50.362;7.568;2023-09-12T15:42:49;29.70;57.10
51476;DHT22;37554;50.362;7.568;2023-09-12T15:45:15;29.60;57.10